createdAt,value
2022-09-07T00:02:30.495Z,88.92
2022-09-07T00:04:56.919Z,89.04
2022-09-07T00:07:30.400Z,89.24
2022-09-07T00:10:03.434Z,89.77
2022-09-07T00:12:36.450Z,89.73
2022-09-07T00:15:11.413Z,89.97
2022-09-07T00:17:37.903Z,90.07
2022-09-07T00:20:14.424Z,90.42
2022-09-07T00:22:40.895Z,90.54
2022-09-07T00:25:14.433Z,90.45
2022-09-07T00:27:41.300Z,90.50
2022-09-07T00:30:16.442Z,90.35
2022-09-07T00:32:50.420Z,90.31
2022-09-07T00:35:16.961Z,90.51
2022-09-07T00:37:50.430Z,90.46
2022-09-07T00:40:17.029Z,90.75
2022-09-07T00:42:50.433Z,90.99
2022-09-07T00:45:19.481Z,91.42
2022-09-07T00:48:04.408Z,91.45
2022-09-07T00:50:36.409Z,91.05
2022-09-07T00:53:13.432Z,91.63
2022-09-07T00:55:42.543Z,91.55
2022-09-07T00:58:10.232Z,92.08
2022-09-07T01:00:44.407Z,92.17
2022-09-07T01:03:11.485Z,92.18
2022-09-07T01:05:52.421Z,92.25
2022-09-07T01:08:18.987Z,92.30
2022-09-07T01:10:54.442Z,92.20
2022-09-07T01:13:20.857Z,92.19
2022-09-07T01:16:14.493Z,92.14
2022-09-07T01:19:16.479Z,92.13
2022-09-07T01:22:24.570Z,92.17
2022-09-07T01:25:07.035Z,92.84
2022-09-07T01:27:56.407Z,93.01
2022-09-07T01:30:24.495Z,93.18
2022-09-07T01:33:16.405Z,93.13
2022-09-07T01:36:01.114Z,92.93
2022-09-07T01:39:08.386Z,92.99
2022-09-07T01:41:57.451Z,93.05
2022-09-07T01:44:40.409Z,92.82
2022-09-07T01:47:17.995Z,93.07
2022-09-07T01:50:35.412Z,92.76
2022-09-07T01:53:09.549Z,92.43
2022-09-07T01:56:06.408Z,92.46
2022-09-07T01:58:46.394Z,93.10
2022-09-07T02:01:28.521Z,94.06
2022-09-07T02:04:16.391Z,94.84
2022-09-07T02:06:49.002Z,95.09
2022-09-07T02:09:40.400Z,95.52
2022-09-07T02:12:15.856Z,95.68
2022-09-07T02:14:54.405Z,96.14
2022-09-07T02:17:38.408Z,96.08
2022-09-07T02:20:11.270Z,96.63
2022-09-07T02:22:48.415Z,96.55
2022-09-07T02:25:21.924Z,96.54
2022-09-07T02:28:02.388Z,96.67
2022-09-07T02:30:42.473Z,96.49
2022-09-07T02:33:09.395Z,96.37
2022-09-07T02:35:43.405Z,96.65
2022-09-07T02:38:09.991Z,96.41
2022-09-07T02:40:36.355Z,96.72
2022-09-07T02:43:14.385Z,96.40
2022-09-07T02:46:08.469Z,96.38
2022-09-07T02:49:06.393Z,96.45
2022-09-07T02:51:51.786Z,96.56
2022-09-07T02:54:34.393Z,96.39
2022-09-07T02:57:08.406Z,96.10
2022-09-07T02:59:52.402Z,96.16
2022-09-07T03:02:20.808Z,96.61
2022-09-07T03:05:18.407Z,96.85
2022-09-07T03:07:51.554Z,96.88
2022-09-07T03:10:25.386Z,96.95
2022-09-07T03:12:52.011Z,97.12
2022-09-07T03:15:21.629Z,97.02
2022-09-07T03:17:54.420Z,97.21
2022-09-07T03:20:22.269Z,97.07
2022-09-07T03:23:00.383Z,97.08
2022-09-07T03:25:33.409Z,97.50
2022-09-07T03:28:06.629Z,97.27
2022-09-07T03:30:50.494Z,97.15
2022-09-07T03:33:17.474Z,97.12
2022-09-07T03:36:05.376Z,97.28
2022-09-07T03:38:31.989Z,97.17
2022-09-07T03:41:10.371Z,96.91
2022-09-07T03:43:36.782Z,97.03
2022-09-07T03:46:12.425Z,97.11
2022-09-07T03:48:39.403Z,96.91
2022-09-07T03:51:08.299Z,96.69
2022-09-07T03:53:44.382Z,96.67
2022-09-07T03:56:16.157Z,96.45
2022-09-07T03:58:50.386Z,96.48
2022-09-07T04:01:19.457Z,96.53
2022-09-07T04:03:47.086Z,96.53
2022-09-07T04:06:20.422Z,96.58
2022-09-07T04:08:47.062Z,96.63
2022-09-07T04:11:16.924Z,96.46
2022-09-07T04:13:50.368Z,96.57
2022-09-07T04:16:28.477Z,97.00
2022-09-07T04:18:54.876Z,96.86
2022-09-07T04:21:30.362Z,96.79
2022-09-07T04:23:56.812Z,96.59
2022-09-07T04:26:29.025Z,96.36
2022-09-07T04:29:02.362Z,96.47
2022-09-07T04:31:42.389Z,96.61
2022-09-07T04:34:15.077Z,96.49
2022-09-07T04:36:48.383Z,96.68
2022-09-07T04:39:14.831Z,96.41
2022-09-07T04:41:41.219Z,96.85
2022-09-07T04:44:16.979Z,96.51
2022-09-07T04:46:50.373Z,96.47
2022-09-07T04:52:18.428Z,96.58
2022-09-07T04:54:49.571Z,96.63
2022-09-07T04:57:16.333Z,97.07
2022-09-07T04:59:50.413Z,96.81
2022-09-07T05:02:17.466Z,97.14
2022-09-07T05:04:43.908Z,97.35
2022-09-07T05:07:16.363Z,97.49
2022-09-07T05:09:42.807Z,97.43
2022-09-07T05:12:16.377Z,97.63
2022-09-07T05:14:42.890Z,97.68
2022-09-07T05:17:09.385Z,97.62
2022-09-07T05:19:42.373Z,97.77
2022-09-07T05:22:08.812Z,97.68
2022-09-07T05:24:43.387Z,97.68
2022-09-07T05:27:16.366Z,97.43
2022-09-07T05:32:36.416Z,95.90
2022-09-07T05:35:10.386Z,95.21
2022-09-07T05:37:36.763Z,94.88
2022-09-07T05:40:10.470Z,94.83
2022-09-07T05:42:37.459Z,94.74
2022-09-07T05:45:11.369Z,94.75
2022-09-07T05:47:44.383Z,94.23
2022-09-07T05:50:11.456Z,93.90
2022-09-07T05:52:44.383Z,93.70
2022-09-07T05:55:28.870Z,93.54
2022-09-07T05:58:04.349Z,92.28
2022-09-07T06:00:38.411Z,91.21
2022-09-07T06:03:12.655Z,88.82
2022-09-07T06:05:46.368Z,87.68
2022-09-07T06:08:20.539Z,88.41
2022-09-07T06:10:47.083Z,89.03
2022-09-07T06:13:13.531Z,90.53
2022-09-07T06:15:46.384Z,90.75
2022-09-07T06:18:19.370Z,91.23
2022-09-07T06:20:45.754Z,90.91
2022-09-07T06:23:12.121Z,91.13
2022-09-07T06:25:45.340Z,90.96
2022-09-07T06:28:18.359Z,91.05
2022-09-07T06:30:44.794Z,91.61
2022-09-07T06:33:21.930Z,91.94
2022-09-07T06:36:03.273Z,91.89
2022-09-07T06:38:38.389Z,91.72
2022-09-07T06:44:20.382Z,91.65
2022-09-07T06:49:36.390Z,90.83
2022-09-07T06:52:03.824Z,85.30
2022-09-07T06:57:24.363Z,71.52
2022-09-07T06:59:50.792Z,70.12
2022-09-07T07:02:24.362Z,69.01
2022-09-07T07:04:58.361Z,68.00
2022-09-07T07:07:24.763Z,66.33
2022-09-07T07:09:51.219Z,65.29
2022-09-07T07:14:49.645Z,63.81
2022-09-07T07:17:22.354Z,62.33
2022-09-07T07:19:55.354Z,60.36
2022-09-07T07:22:45.494Z,59.89
2022-09-07T07:25:15.378Z,60.63
2022-09-07T07:27:42.314Z,62.85
2022-09-07T07:30:22.375Z,65.58
2022-09-07T07:32:48.777Z,61.62
2022-09-07T07:35:22.314Z,59.78
2022-09-07T07:37:52.369Z,58.48
2022-09-07T07:40:30.331Z,57.77
2022-09-07T07:42:57.462Z,59.00
2022-09-07T07:48:16.693Z,60.55
2022-09-07T07:50:50.314Z,62.33
2022-09-07T07:53:41.568Z,65.62
2022-09-07T07:56:10.102Z,64.97
2022-09-07T07:58:44.314Z,63.34
2022-09-07T08:01:13.340Z,66.46
2022-09-07T08:03:50.334Z,67.91
2022-09-07T08:06:18.870Z,68.18
2022-09-07T08:08:52.310Z,68.70
2022-09-07T08:11:20.550Z,69.80
2022-09-07T08:13:58.283Z,70.27
2022-09-07T08:16:31.341Z,71.53
2022-09-07T08:19:04.315Z,71.65
2022-09-07T08:21:30.804Z,71.84
2022-09-07T08:23:57.232Z,71.96
2022-09-07T08:26:30.312Z,73.73
2022-09-07T08:29:12.306Z,72.95
2022-09-07T08:31:46.345Z,73.45
2022-09-07T08:34:12.734Z,73.91
2022-09-07T08:36:46.304Z,73.88
2022-09-07T08:39:13.115Z,71.95
2022-09-07T08:42:04.315Z,73.30
2022-09-07T08:44:48.322Z,73.05
2022-09-07T08:47:42.952Z,73.03
2022-09-07T08:50:26.300Z,72.53
2022-09-07T08:53:00.040Z,71.40
2022-09-07T08:55:44.311Z,73.58
2022-09-07T08:58:32.523Z,73.73
2022-09-07T09:01:34.048Z,72.91
2022-09-07T09:04:18.229Z,71.00
2022-09-07T09:07:03.374Z,71.66
2022-09-07T09:09:51.865Z,71.56
2022-09-07T09:12:35.570Z,72.23
2022-09-07T09:15:22.333Z,71.51
2022-09-07T09:18:14.635Z,72.56
2022-09-07T09:20:48.647Z,71.82
2022-09-07T09:23:24.350Z,70.99
2022-09-07T09:26:01.551Z,70.80
2022-09-07T09:28:34.553Z,71.53
2022-09-07T09:31:01.237Z,71.45
2022-09-07T09:33:28.832Z,73.05
2022-09-07T09:36:06.331Z,72.53
2022-09-07T09:38:43.490Z,70.81
2022-09-07T09:41:18.281Z,71.66
2022-09-07T09:44:02.311Z,71.25
2022-09-07T09:46:32.478Z,70.31
2022-09-07T09:49:20.314Z,69.50
2022-09-07T09:55:03.292Z,70.99
2022-09-07T10:01:27.703Z,69.07
2022-09-07T10:06:28.297Z,69.34
2022-09-07T10:08:57.776Z,69.38
2022-09-07T10:12:08.221Z,67.37
2022-09-07T10:14:46.689Z,68.81
2022-09-07T10:17:50.297Z,67.50
2022-09-07T10:20:16.636Z,66.77
2022-09-07T10:22:58.303Z,66.21
2022-09-07T11:00:07.894Z,60.91
2022-09-07T11:06:02.484Z,58.61
2022-09-07T11:14:29.310Z,58.06
2022-09-07T11:16:59.673Z,57.21
2022-09-07T11:19:36.363Z,56.50
2022-09-07T11:22:19.498Z,56.04
2022-09-07T11:25:31.608Z,56.93
2022-09-07T11:28:08.910Z,56.62
2022-09-07T11:30:42.899Z,55.68
2022-09-07T11:33:23.114Z,55.36
2022-09-07T11:36:01.123Z,55.28
2022-09-07T11:38:46.778Z,56.58
2022-09-07T11:41:22.173Z,53.74
2022-09-07T11:44:00.721Z,55.60
2022-09-07T11:46:40.690Z,56.32
2022-09-07T11:49:15.559Z,54.50
2022-09-07T11:51:53.698Z,53.75
2022-09-07T11:54:32.466Z,53.89
2022-09-07T11:57:28.798Z,55.14
2022-09-07T12:00:00.806Z,54.71
2022-09-07T12:03:00.912Z,54.29
2022-09-07T12:05:33.717Z,54.22
2022-09-07T12:08:32.484Z,54.51
2022-09-07T12:11:22.614Z,53.49
2022-09-07T12:13:58.755Z,53.73
2022-09-07T12:16:45.979Z,53.51
2022-09-07T12:19:20.587Z,52.52
2022-09-07T12:21:54.402Z,51.71
2022-09-07T12:24:32.744Z,51.80
2022-09-07T12:27:00.722Z,51.78
2022-09-07T12:29:29.566Z,49.94
2022-09-07T12:32:00.095Z,48.95
2022-09-07T12:34:35.063Z,49.29
2022-09-07T12:37:08.911Z,50.58
2022-09-07T12:39:43.503Z,49.87
2022-09-07T12:42:34.113Z,49.69
2022-09-07T12:45:28.272Z,48.60
2022-09-07T12:48:04.348Z,47.38
2022-09-07T12:50:39.264Z,47.55
2022-09-07T12:53:40.791Z,48.67
2022-09-07T12:56:32.035Z,49.42
2022-09-07T12:59:18.930Z,48.33
2022-09-07T13:01:59.275Z,47.76
2022-09-07T13:04:43.995Z,46.82
2022-09-07T13:07:22.630Z,46.76
2022-09-07T13:10:00.511Z,49.15
2022-09-07T13:12:54.695Z,47.64
2022-09-07T13:15:49.569Z,47.96
2022-09-07T13:18:28.537Z,48.60
2022-09-07T13:21:10.939Z,47.35
2022-09-07T13:23:49.590Z,47.92
2022-09-07T13:26:53.633Z,47.43
2022-09-07T13:29:36.710Z,48.03
2022-09-07T13:35:20.291Z,48.43
2022-09-07T13:38:02.037Z,48.86
2022-09-07T13:40:39.069Z,46.95
2022-09-07T13:43:12.164Z,46.84
2022-09-07T13:45:53.864Z,48.46
2022-09-07T13:48:36.884Z,49.61
2022-09-07T13:51:34.481Z,49.49
2022-09-07T13:54:03.889Z,49.08
2022-09-07T13:56:45.045Z,47.73
2022-09-07T13:59:19.753Z,48.02
2022-09-07T14:01:48.011Z,48.46
2022-09-07T14:04:41.327Z,47.40
2022-09-07T14:07:25.428Z,45.90
2022-09-07T14:10:06.949Z,46.71
2022-09-07T14:12:43.182Z,46.45
2022-09-07T14:15:34.316Z,47.02
2022-09-07T14:18:13.122Z,45.63
2022-09-07T14:20:49.483Z,43.80
2022-09-07T14:23:23.955Z,43.42
2022-09-07T14:26:19.944Z,44.39
2022-09-07T14:28:48.916Z,42.42
2022-09-07T14:31:18.013Z,42.97
2022-09-07T14:33:55.377Z,44.28
2022-09-07T14:36:43.975Z,45.06
2022-09-07T14:39:13.440Z,46.57
2022-09-07T14:41:42.977Z,45.69
2022-09-07T14:44:37.636Z,46.69
2022-09-07T14:47:30.432Z,46.00
2022-09-07T14:50:05.322Z,44.24
2022-09-07T14:52:42.307Z,45.81
2022-09-07T14:55:27.915Z,45.46
2022-09-07T14:58:13.503Z,44.15
2022-09-07T15:00:42.286Z,43.41
2022-09-07T15:03:32.172Z,44.16
2022-09-07T15:06:01.468Z,43.59
2022-09-07T15:08:48.722Z,44.13
2022-09-07T15:11:39.504Z,43.47
2022-09-07T15:14:20.323Z,43.22
2022-09-07T15:19:45.446Z,43.79
2022-09-07T15:22:13.347Z,43.80
2022-09-07T15:24:39.885Z,43.76
2022-09-07T15:27:26.914Z,43.90
2022-09-07T15:29:53.364Z,44.55
2022-09-07T15:32:20.002Z,43.92
2022-09-07T15:34:46.561Z,44.26
2022-09-07T15:39:59.442Z,42.36
2022-09-07T15:45:13.412Z,44.36
2022-09-07T15:47:47.161Z,43.60
2022-09-07T15:50:17.183Z,44.07
2022-09-07T15:52:46.439Z,44.49
2022-09-07T15:55:13.562Z,43.13
2022-09-07T15:58:10.600Z,43.35
2022-09-07T16:00:27.113Z,42.04
2022-09-07T16:03:09.417Z,44.19
2022-09-07T16:05:40.653Z,43.31
2022-09-07T16:10:55.307Z,43.17
2022-09-07T16:13:24.122Z,44.31
2022-09-07T16:15:50.972Z,45.08
2022-09-07T16:18:18.386Z,46.38
2022-09-07T16:20:45.870Z,46.37
2022-09-07T16:23:15.227Z,46.34
2022-09-07T16:25:43.134Z,48.14
2022-09-07T16:28:10.240Z,47.82
2022-09-07T16:30:40.431Z,48.09
2022-09-07T16:33:07.375Z,48.40
2022-09-07T16:35:33.901Z,49.01
2022-09-07T16:40:46.731Z,48.73
2022-09-07T16:43:13.130Z,50.08
2022-09-07T16:48:25.939Z,50.07
2022-09-07T16:50:58.944Z,50.51
2022-09-07T16:53:29.199Z,48.91
2022-09-07T16:56:02.460Z,50.23
2022-09-07T16:58:38.296Z,51.23
2022-09-07T17:01:11.604Z,51.05
2022-09-07T17:03:38.895Z,50.44
2022-09-07T17:06:08.007Z,51.58
2022-09-07T17:08:35.912Z,52.00
2022-09-07T17:11:08.404Z,52.48
2022-09-07T17:13:37.011Z,53.36
2022-09-07T17:16:07.900Z,54.67
2022-09-07T17:21:22.090Z,54.45
2022-09-07T17:23:54.814Z,55.52
2022-09-07T17:26:23.318Z,55.85
2022-09-07T17:28:54.152Z,55.28
2022-09-07T17:34:13.233Z,55.48
2022-09-07T17:36:40.367Z,56.02
2022-09-07T17:39:16.401Z,57.57
2022-09-07T17:41:44.150Z,58.44
2022-09-07T17:44:10.900Z,59.35
2022-09-07T17:46:37.371Z,60.42
2022-09-07T17:49:05.145Z,60.48
2022-09-07T17:51:32.557Z,60.10
2022-09-07T17:54:02.514Z,60.52
2022-09-07T17:56:29.900Z,60.95
2022-09-07T18:00:10.735Z,61.53
2022-09-07T18:01:43.347Z,61.67
2022-09-07T18:04:10.996Z,61.50
2022-09-07T18:06:37.639Z,62.10
2022-09-07T18:09:05.311Z,63.12
2022-09-07T18:11:49.043Z,61.93
2022-09-07T18:14:16.798Z,63.13
2022-09-07T18:16:45.097Z,63.29
2022-09-07T18:19:12.332Z,64.48
2022-09-07T18:21:41.234Z,64.44
2022-09-07T18:24:23.440Z,64.55
2022-09-07T18:26:52.542Z,65.52
2022-09-07T18:29:29.866Z,65.58
2022-09-07T18:31:58.876Z,66.49
2022-09-07T18:34:25.611Z,66.90
2022-09-07T18:36:52.117Z,67.71
2022-09-07T18:39:18.686Z,67.99
2022-09-07T18:41:45.032Z,68.46
2022-09-07T18:46:57.874Z,69.12
2022-09-07T18:49:25.052Z,69.00
2022-09-07T18:54:38.932Z,68.56
2022-09-07T18:57:06.700Z,68.00
2022-09-07T18:59:33.281Z,69.65
2022-09-07T19:02:03.957Z,69.69
2022-09-07T19:07:20.277Z,70.77
2022-09-07T19:09:48.261Z,70.81
2022-09-07T19:12:15.068Z,70.86
2022-09-07T19:14:42.154Z,72.61
2022-09-07T19:17:10.743Z,72.91
2022-09-07T19:19:38.002Z,73.52
2022-09-07T19:22:04.408Z,74.43
2022-09-07T19:24:31.770Z,75.52
2022-09-07T19:27:00.430Z,74.98
2022-09-07T19:29:27.631Z,75.39
2022-09-07T19:32:11.881Z,74.60
2022-09-07T19:34:41.006Z,74.21
2022-09-07T19:37:09.305Z,73.98
2022-09-07T19:39:35.697Z,74.70
2022-09-07T19:42:04.179Z,74.35
2022-09-07T19:44:30.972Z,74.91
2022-09-07T19:47:00.021Z,75.00
2022-09-07T19:49:27.015Z,75.18
2022-09-07T19:51:54.644Z,75.11
2022-09-07T19:54:21.051Z,75.21
2022-09-07T19:56:47.422Z,75.43
2022-09-07T19:59:14.387Z,75.81
2022-09-07T20:01:45.704Z,77.76
2022-09-07T20:04:18.939Z,78.53
2022-09-07T20:06:47.996Z,78.13
2022-09-07T20:09:14.321Z,80.06
2022-09-07T20:11:46.024Z,80.20
2022-09-07T20:14:12.654Z,80.70
2022-09-07T20:16:40.024Z,80.69
2022-09-07T20:19:07.448Z,80.24
2022-09-07T20:21:34.271Z,79.98
2022-09-07T20:24:00.667Z,80.13
2022-09-07T20:26:27.271Z,80.41
2022-09-07T20:29:05.890Z,80.64
2022-09-07T20:31:41.635Z,80.22
2022-09-07T20:34:09.415Z,80.05
2022-09-07T20:36:36.166Z,80.10
2022-09-07T20:39:02.532Z,80.12
2022-09-07T20:41:31.424Z,80.29
2022-09-07T20:44:00.217Z,80.25
2022-09-07T20:46:28.369Z,80.10
2022-09-07T20:48:54.834Z,80.79
2022-09-07T20:51:22.235Z,80.88
2022-09-07T20:53:49.621Z,81.88
2022-09-07T20:56:24.423Z,81.79
2022-09-07T20:58:55.952Z,81.89
2022-09-07T21:01:23.419Z,81.74
2022-09-07T21:03:52.743Z,82.54
2022-09-07T21:06:20.533Z,82.22
2022-09-07T21:08:50.783Z,82.53
2022-09-07T21:11:22.922Z,82.91
2022-09-07T21:14:00.885Z,82.88
2022-09-07T21:16:28.014Z,83.24
2022-09-07T21:18:58.691Z,83.62
2022-09-07T21:21:27.194Z,83.66
2022-09-07T21:24:03.695Z,83.19
2022-09-07T21:26:32.093Z,83.73
2022-09-07T21:29:04.919Z,83.63
2022-09-07T21:31:33.632Z,83.50
2022-09-07T21:34:01.910Z,83.20
2022-09-07T21:36:29.381Z,83.53
2022-09-07T21:38:56.180Z,83.41
2022-09-07T21:41:24.545Z,83.21
2022-09-07T21:43:58.574Z,83.85
2022-09-07T21:46:26.081Z,84.27
2022-09-07T21:48:52.732Z,84.43
2022-09-07T21:51:19.109Z,84.10
2022-09-07T21:53:45.654Z,84.60
2022-09-07T21:56:14.092Z,84.99
2022-09-07T21:58:40.837Z,85.39
2022-09-07T22:01:12.311Z,86.00
2022-09-07T22:03:40.391Z,85.93
2022-09-07T22:06:08.122Z,85.68
2022-09-07T22:08:39.463Z,85.89
2022-09-07T22:11:11.565Z,86.59
2022-09-07T22:13:38.268Z,86.50
2022-09-07T22:16:06.241Z,86.63
2022-09-07T22:18:33.052Z,86.67
2022-09-07T22:21:10.732Z,86.73
2022-09-07T22:23:39.509Z,87.06
2022-09-07T22:26:07.850Z,87.33
2022-09-07T22:28:35.438Z,87.72
2022-09-07T22:31:17.253Z,87.60
2022-09-07T22:33:45.456Z,87.55
2022-09-07T22:36:15.347Z,87.60
2022-09-07T22:38:43.497Z,87.53
2022-09-07T22:41:12.475Z,87.29
2022-09-07T22:43:39.343Z,87.58
2022-09-07T22:46:07.053Z,87.19
2022-09-07T22:48:33.921Z,86.98
2022-09-07T22:51:01.250Z,86.96
2022-09-07T22:53:29.964Z,87.16
2022-09-07T22:55:56.999Z,87.23
2022-09-07T22:58:23.840Z,87.09
2022-09-07T23:00:51.294Z,86.42
2022-09-07T23:03:18.543Z,86.58
2022-09-07T23:05:44.941Z,86.81
2022-09-07T23:08:11.866Z,86.43
2022-09-07T23:10:39.241Z,86.17
2022-09-07T23:13:05.906Z,85.94
2022-09-07T23:15:35.879Z,85.89
2022-09-07T23:18:02.252Z,86.38
2022-09-07T23:20:28.649Z,86.47
2022-09-07T23:22:55.112Z,85.99
2022-09-07T23:25:21.489Z,86.07
2022-09-07T23:27:47.936Z,87.04
2022-09-07T23:30:14.609Z,87.46
2022-09-07T23:32:41.220Z,88.25
2022-09-07T23:35:08.237Z,88.43
2022-09-07T23:37:34.645Z,88.45
2022-09-07T23:40:01.185Z,88.68
2022-09-07T23:42:27.790Z,88.50
2022-09-07T23:44:54.184Z,88.49
2022-09-07T23:47:20.542Z,88.63
2022-09-07T23:49:47.057Z,88.24
2022-09-07T23:52:13.459Z,88.36
2022-09-07T23:54:39.932Z,87.74
2022-09-07T23:57:06.292Z,87.90
2022-09-07T23:59:33.840Z,88.00
